Weather at Karawa Airport

Public forecast

Using degrees Celsius for public forecast. Weather courtesy of forecast.io.

Closest aviation weather report (METAR) to Karawa Airport

Report is more than 6 hours old.

Closest report is Gemena Airport, 32.7 nm (60.5 km) WSW. Retrieved 2012/08/18 09:00 UTC (8 years ago):

FZFK 180900Z 29004KT 9999 BKN023 30/23 Q//// NOSIG

Closest aviation forecast (TAF) to Karawa Airport

Closest forecast is Bangui M'Poko International Airport, 123.4 nm (228.5 km) WNW. Retrieved 2021-01-27 00:33 UTC (2 hours ago):

TAF FEFF 262300Z 2700/2806 VRB03KT 6000 FEW010 BECMG 2702/2704 4000 BR BKN005 PROB30 TEMPO 2704/2707 0800 FG BECMG 2708/2710 9999 NSW BKN013 FEW033CB BECMG 2711/2712 BKN020 FEW033CB TEMPO 2713/2716 4000 TSRA BECMG 2717/2719 BKN013